This is the latest recevied weather packets stored in our database for station/object WP3OF-3. If no packets are shown the sender has not sent any weather packets the latest 10 day(s).
| Time | Temp. | Humidity | Pressure | Rain* | Wind** | Luminosity | Snow |
|---|---|---|---|---|---|---|---|
| 1778170369 | 30° C | 71% | 1020 hPa | 0 mm | - | - | - |
| 1778170064 | 30° C | 71% | 1020.2 hPa | 0 mm | - | - | - |
| 1778169761 | 30° C | 72% | 1020 hPa | 0 mm | - | - | - |
| 1778169457 | 30° C | 71% | 1019.9 hPa | 0 mm | - | - | - |
| 1778169153 | 30° C | 71% | 1020 hPa | 0 mm | - | - | - |
| 1778168850 | 29.44° C | 71% | 1020 hPa | 0 mm | - | - | - |
| 1778168548 | 29.44° C | 72% | 1020.1 hPa | 0 mm | - | - | - |
| 1778168244 | 29.44° C | 70% | 1020.2 hPa | 0 mm | - | - | - |
| 1778167940 | 28.89° C | 71% | 1020.2 hPa | 0 mm | - | - | - |
| 1778167637 | 29.44° C | 71% | 1020.2 hPa | 0 mm | - | - | - |
| 1778167333 | 29.44° C | 70% | 1020.2 hPa | 0 mm | - | - | - |
| 1778167029 | 29.44° C | 69% | 1020.2 hPa | 0 mm | - | - | - |
| 1778166726 | 29.44° C | 67% | 1020.2 hPa | 0 mm | - | - | - |
| 1778166423 | 29.44° C | 65% | 1020.3 hPa | 0 mm | - | - | - |
| 1778166120 | 29.44° C | 65% | 1020.3 hPa | 0 mm | - | - | - |
| 1778165815 | 29.44° C | 65% | 1020.3 hPa | 0 mm | - | - | - |
| 1778165512 | 30.56° C | 63% | 1020.3 hPa | 0 mm | - | - | - |
| 1778165209 | 30.56° C | 63% | 1020.2 hPa | 0 mm | - | - | - |
| 1778164907 | 29.44° C | 65% | 1020.3 hPa | 0 mm | - | - | - |
| 1778164603 | 30° C | 64% | 1020.4 hPa | 0 mm | - | - | - |
| 1778164301 | 30.56° C | 63% | 1020.5 hPa | 0 mm | - | - | - |
| 1778163996 | 29.44° C | 65% | 1020.4 hPa | 0 mm | - | - | - |
| 1778163693 | 30° C | 63% | 1020.4 hPa | 0 mm | - | - | - |
| 1778163389 | 28.89° C | 68% | 1020.5 hPa | 0 mm | - | - | - |
| 1778163086 | 30° C | 64% | 1020.4 hPa | 0 mm | - | - | - |
* Rain latest hour (hover to see other rain measurements)
** Current wind speed in m/s (hover to see current wind gust speed)